createdAt,value
2023-04-04T00:01:25.764Z,53.13
2023-04-04T00:04:27.936Z,53.24
2023-04-04T00:07:29.387Z,53.14
2023-04-04T00:10:31.175Z,53.08
2023-04-04T00:13:33.085Z,53.15
2023-04-04T00:16:34.896Z,53.27
2023-04-04T00:19:36.758Z,53.21
2023-04-04T00:22:38.159Z,53.21
2023-04-04T00:25:39.555Z,53.15
2023-04-04T00:28:41.037Z,53.28
2023-04-04T00:31:42.512Z,53.27
2023-04-04T00:34:43.936Z,53.29
2023-04-04T00:37:47.258Z,53.40
2023-04-04T00:40:50.964Z,53.31
2023-04-04T00:43:54.000Z,53.37
2023-04-04T00:46:55.516Z,53.28
2023-04-04T00:49:56.902Z,53.35
2023-04-04T00:52:58.490Z,53.31
2023-04-04T00:56:00.030Z,53.57
2023-04-04T00:59:01.812Z,53.61
2023-04-04T01:02:04.081Z,53.53
2023-04-04T01:05:06.298Z,53.75
2023-04-04T01:08:07.902Z,53.85
2023-04-04T01:11:09.927Z,53.79
2023-04-04T01:14:11.293Z,53.81
2023-04-04T01:17:13.159Z,53.86
2023-04-04T01:20:16.110Z,53.75
2023-04-04T01:23:24.400Z,53.80
2023-04-04T01:26:29.243Z,53.72
2023-04-04T01:29:35.232Z,53.75
2023-04-04T01:32:59.428Z,53.80
2023-04-04T01:36:10.778Z,53.72
2023-04-04T01:39:18.219Z,53.69
2023-04-04T01:42:20.402Z,53.78
2023-04-04T01:45:23.297Z,53.82
2023-04-04T01:48:25.946Z,53.81
2023-04-04T01:51:30.680Z,53.91
2023-04-04T01:54:33.426Z,53.94
2023-04-04T01:57:34.861Z,53.92
2023-04-04T02:00:36.685Z,54.02
2023-04-04T02:03:38.184Z,53.84
2023-04-04T02:06:40.347Z,54.03
2023-04-04T02:09:41.828Z,54.18
2023-04-04T02:12:43.600Z,54.26
2023-04-04T02:15:45.079Z,54.39
2023-04-04T02:18:46.619Z,54.42
2023-04-04T02:21:48.071Z,54.49
2023-04-04T02:24:49.444Z,54.44
2023-04-04T02:27:50.870Z,54.62
2023-04-04T02:30:52.305Z,54.50
2023-04-04T02:33:53.734Z,54.53
2023-04-04T02:36:56.407Z,54.46
2023-04-04T02:39:58.089Z,54.47
2023-04-04T02:43:00.315Z,54.44
2023-04-04T02:46:10.798Z,54.45
2023-04-04T02:49:20.485Z,54.34
2023-04-04T02:52:24.457Z,54.39
2023-04-04T02:55:25.968Z,54.34
2023-04-04T02:58:27.632Z,54.40
2023-04-04T03:01:29.030Z,54.59
2023-04-04T03:04:33.874Z,54.92
2023-04-04T03:07:35.313Z,55.13
2023-04-04T03:10:37.248Z,55.25
2023-04-04T03:13:38.853Z,55.34
2023-04-04T03:16:40.939Z,55.45
2023-04-04T03:19:42.362Z,55.55
2023-04-04T03:22:43.792Z,55.75
2023-04-04T03:25:45.849Z,55.74
2023-04-04T03:28:47.248Z,55.99
2023-04-04T03:31:49.479Z,55.94
2023-04-04T03:34:52.082Z,55.87
2023-04-04T03:37:54.676Z,55.91
2023-04-04T03:41:03.746Z,55.96
2023-04-04T03:44:05.639Z,55.94
2023-04-04T03:47:07.159Z,56.02
2023-04-04T03:50:09.821Z,55.93
2023-04-04T03:53:14.872Z,56.01
2023-04-04T03:56:16.605Z,55.91
2023-04-04T03:59:18.145Z,55.93
2023-04-04T04:02:21.191Z,55.93
2023-04-04T04:05:22.585Z,55.95
2023-04-04T04:08:25.168Z,55.92
2023-04-04T04:11:26.805Z,55.83
2023-04-04T04:14:28.236Z,55.86
2023-04-04T04:17:29.731Z,55.90
2023-04-04T04:20:31.702Z,55.71
2023-04-04T04:23:33.121Z,55.70
2023-04-04T04:26:34.573Z,55.74
2023-04-04T04:29:37.452Z,55.62
2023-04-04T04:32:38.936Z,55.55
2023-04-04T04:35:41.623Z,55.51
2023-04-04T04:38:43.960Z,55.46
2023-04-04T04:41:45.953Z,55.38
2023-04-04T04:44:48.150Z,55.42
2023-04-04T04:47:49.898Z,55.50
2023-04-04T04:50:52.934Z,55.68
2023-04-04T04:54:05.629Z,55.68
2023-04-04T04:57:07.981Z,56.00
2023-04-04T05:00:13.884Z,56.03
2023-04-04T05:03:17.574Z,56.14
2023-04-04T05:06:23.409Z,56.24
2023-04-04T05:09:26.171Z,56.39
2023-04-04T05:12:27.775Z,56.33
2023-04-04T05:15:29.836Z,56.44
2023-04-04T05:18:31.743Z,56.51
2023-04-04T05:21:33.728Z,56.46
2023-04-04T05:24:38.607Z,56.52
2023-04-04T05:27:41.458Z,56.53
2023-04-04T05:30:43.208Z,56.54
2023-04-04T05:33:49.406Z,56.47
2023-04-04T05:37:01.153Z,56.42
2023-04-04T05:40:03.289Z,56.46
2023-04-04T05:43:04.948Z,56.49
2023-04-04T05:46:13.895Z,56.48
2023-04-04T05:49:21.212Z,56.36
2023-04-04T05:52:30.036Z,56.36
2023-04-04T05:55:32.545Z,56.36
2023-04-04T05:58:34.317Z,56.28
2023-04-04T06:01:37.478Z,56.21
2023-04-04T06:04:45.545Z,56.17
2023-04-04T06:07:51.646Z,56.49
2023-04-04T06:10:55.195Z,56.14
2023-04-04T06:13:57.340Z,55.91
2023-04-04T06:16:59.802Z,55.94
2023-04-04T06:20:01.322Z,55.70
2023-04-04T06:23:04.541Z,55.63
2023-04-04T06:26:08.479Z,55.43
2023-04-04T06:29:11.312Z,55.24
2023-04-04T06:32:15.665Z,55.12
2023-04-04T06:35:20.110Z,55.00
2023-04-04T06:38:30.507Z,54.95
2023-04-04T06:41:34.809Z,54.85
2023-04-04T06:44:36.386Z,54.73
2023-04-04T06:47:37.928Z,54.74
2023-04-04T06:50:40.906Z,54.63
2023-04-04T06:53:47.159Z,54.66
2023-04-04T06:56:48.650Z,54.57
2023-04-04T06:59:50.089Z,54.68
2023-04-04T07:02:57.030Z,54.65
2023-04-04T07:05:58.461Z,54.70
2023-04-04T07:08:59.945Z,54.79
2023-04-04T07:12:03.608Z,54.73
2023-04-04T07:15:05.148Z,54.81
2023-04-04T07:18:07.531Z,54.84
2023-04-04T07:21:09.274Z,54.77
2023-04-04T07:24:10.683Z,54.91
2023-04-04T07:27:15.104Z,55.08
2023-04-04T07:30:16.582Z,55.25
2023-04-04T07:33:17.947Z,55.32
2023-04-04T07:36:19.568Z,55.18
2023-04-04T07:39:21.243Z,55.17
2023-04-04T07:42:25.662Z,55.25
2023-04-04T07:45:27.054Z,55.37
2023-04-04T07:48:28.571Z,55.41
2023-04-04T07:51:30.964Z,55.38
2023-04-04T07:54:32.542Z,55.46
2023-04-04T07:57:37.480Z,55.44
2023-04-04T08:00:39.253Z,55.43
2023-04-04T08:03:41.233Z,55.43
2023-04-04T08:06:42.801Z,55.37
2023-04-04T08:09:44.231Z,55.38
2023-04-04T08:12:45.598Z,55.42
2023-04-04T08:15:47.073Z,55.42
2023-04-04T08:18:51.398Z,55.07
2023-04-04T08:21:52.894Z,55.17
2023-04-04T08:24:54.739Z,55.22
2023-04-04T08:27:56.383Z,55.43
2023-04-04T08:30:57.819Z,55.35
2023-04-04T08:34:01.332Z,55.21
2023-04-04T08:37:02.841Z,55.19
2023-04-04T08:40:04.775Z,55.19
2023-04-04T08:43:06.261Z,55.24
2023-04-04T08:46:10.078Z,55.21
2023-04-04T08:49:14.264Z,55.28
2023-04-04T08:52:19.450Z,55.22
2023-04-04T08:55:21.262Z,55.29
2023-04-04T08:58:22.720Z,55.30
2023-04-04T09:01:24.196Z,55.36
2023-04-04T09:04:26.075Z,55.54
2023-04-04T09:07:27.908Z,55.57
2023-04-04T09:10:29.742Z,55.69
2023-04-04T09:13:31.315Z,55.76
2023-04-04T09:16:33.122Z,55.79
2023-04-04T09:19:34.542Z,55.98
2023-04-04T09:22:37.112Z,55.93
2023-04-04T09:25:52.771Z,55.92
2023-04-04T09:29:02.080Z,56.00
2023-04-04T09:32:03.694Z,55.98
2023-04-04T09:35:05.677Z,55.93
2023-04-04T09:38:07.516Z,56.03
2023-04-04T09:41:12.361Z,56.04
2023-04-04T09:44:13.829Z,56.09
2023-04-04T09:47:30.989Z,56.02
2023-04-04T09:50:33.602Z,55.96
2023-04-04T09:53:36.989Z,56.00
2023-04-04T09:56:39.234Z,55.96
2023-04-04T09:59:41.201Z,55.91
2023-04-04T10:02:47.867Z,55.77
2023-04-04T10:05:55.108Z,55.79
2023-04-04T10:08:58.286Z,55.68
2023-04-04T10:12:12.152Z,55.77
2023-04-04T10:15:14.997Z,55.76
2023-04-04T10:18:17.203Z,55.53
2023-04-04T10:21:19.294Z,55.53
2023-04-04T10:24:20.910Z,55.64
2023-04-04T10:27:22.317Z,55.68
2023-04-04T10:30:23.771Z,55.59
2023-04-04T10:33:25.092Z,55.70
2023-04-04T10:36:29.959Z,55.65
2023-04-04T10:39:37.572Z,55.60
2023-04-04T10:42:40.074Z,55.57
2023-04-04T10:45:42.711Z,55.45
2023-04-04T10:48:44.461Z,55.46
2023-04-04T10:51:55.743Z,55.27
2023-04-04T10:54:59.934Z,55.36
2023-04-04T10:58:01.841Z,55.17
2023-04-04T11:01:03.317Z,55.20
2023-04-04T11:04:20.343Z,55.35
2023-04-04T11:07:28.086Z,55.32
2023-04-04T11:10:41.269Z,55.26
2023-04-04T11:13:58.170Z,55.40
2023-04-04T11:17:00.412Z,55.51
2023-04-04T11:20:03.726Z,55.49
2023-04-04T11:23:06.321Z,55.46
2023-04-04T11:26:08.480Z,55.46
2023-04-04T11:29:14.267Z,55.45
2023-04-04T11:32:45.797Z,55.40
2023-04-04T11:35:51.754Z,55.43
2023-04-04T11:38:53.651Z,55.45
2023-04-04T11:41:55.383Z,55.57
2023-04-04T11:44:59.622Z,55.72
2023-04-04T11:48:01.315Z,55.81
2023-04-04T11:51:03.858Z,55.87
2023-04-04T11:54:06.447Z,55.97
2023-04-04T11:57:08.379Z,56.19
2023-04-04T12:00:12.153Z,56.39
2023-04-04T12:03:16.138Z,56.50
2023-04-04T12:06:18.012Z,56.64
2023-04-04T12:09:20.648Z,56.84
2023-04-04T12:12:22.103Z,57.10
2023-04-04T12:15:23.488Z,57.41
2023-04-04T12:18:26.277Z,57.35
2023-04-04T12:21:27.738Z,57.43
2023-04-04T12:24:29.182Z,57.42
2023-04-04T12:27:30.683Z,57.55
2023-04-04T12:30:32.260Z,57.45
2023-04-04T12:33:34.342Z,57.42
2023-04-04T12:36:40.453Z,57.41
2023-04-04T12:39:48.885Z,57.20
2023-04-04T12:42:50.255Z,57.01
2023-04-04T12:45:54.141Z,57.17
2023-04-04T12:48:55.624Z,56.96
2023-04-04T12:52:00.556Z,56.93
2023-04-04T12:55:09.506Z,56.81
2023-04-04T12:58:11.468Z,56.78
2023-04-04T13:01:12.980Z,56.81
2023-04-04T13:04:17.639Z,56.78
2023-04-04T13:07:22.977Z,56.86
2023-04-04T13:10:24.686Z,56.86
2023-04-04T13:13:37.094Z,56.89
2023-04-04T13:16:38.791Z,56.88
2023-04-04T13:19:40.437Z,56.77
2023-04-04T13:22:42.393Z,56.71
2023-04-04T13:25:43.811Z,56.80
2023-04-04T13:28:45.453Z,56.67
2023-04-04T13:31:46.837Z,56.65
2023-04-04T13:34:48.291Z,56.70
2023-04-04T13:37:49.732Z,56.48
2023-04-04T13:40:51.189Z,56.75
2023-04-04T13:43:52.800Z,56.73
2023-04-04T13:46:54.242Z,56.64
2023-04-04T13:49:55.843Z,56.65
2023-04-04T13:52:57.264Z,56.85
2023-04-04T13:56:17.193Z,56.77
2023-04-04T13:59:20.076Z,56.86
2023-04-04T14:02:21.597Z,56.80
2023-04-04T14:05:23.117Z,56.59
2023-04-04T14:08:24.535Z,56.62
2023-04-04T14:11:30.895Z,56.68
2023-04-04T14:14:34.509Z,56.75
2023-04-04T14:17:37.147Z,56.82
2023-04-04T14:20:38.598Z,56.76
2023-04-04T14:23:40.147Z,56.76
2023-04-04T14:26:41.584Z,56.91
2023-04-04T14:29:44.920Z,56.94
2023-04-04T14:32:46.316Z,57.16
2023-04-04T14:35:47.707Z,57.17
2023-04-04T14:38:49.082Z,57.19
2023-04-04T14:41:50.482Z,57.16
2023-04-04T14:44:51.903Z,57.09
2023-04-04T14:47:53.304Z,56.97
2023-04-04T14:50:54.858Z,56.92
2023-04-04T14:53:56.282Z,56.97
2023-04-04T14:56:57.960Z,57.00
2023-04-04T14:59:59.669Z,56.81
2023-04-04T15:03:01.519Z,56.97
2023-04-04T15:06:02.969Z,57.15
2023-04-04T15:09:06.147Z,57.09
2023-04-04T15:12:07.670Z,57.16
2023-04-04T15:15:09.386Z,57.23
2023-04-04T15:18:10.991Z,57.33
2023-04-04T15:21:12.390Z,57.27
2023-04-04T15:24:13.763Z,57.29
2023-04-04T15:27:15.304Z,57.29
2023-04-04T15:30:16.732Z,57.28
2023-04-04T15:33:18.223Z,57.31
2023-04-04T15:36:19.795Z,57.30
2023-04-04T15:39:21.381Z,56.13
2023-04-04T15:42:22.866Z,51.71
2023-04-04T15:45:24.333Z,49.94
2023-04-04T15:48:25.720Z,48.88
2023-04-04T15:51:27.569Z,46.11
2023-04-04T15:54:30.901Z,46.42
2023-04-04T15:57:32.293Z,46.51
2023-04-04T16:00:33.756Z,46.91
2023-04-04T16:03:35.659Z,48.14
2023-04-04T16:06:38.789Z,49.19
2023-04-04T16:09:40.333Z,49.83
2023-04-04T16:12:41.972Z,50.41
2023-04-04T16:15:43.487Z,50.82
2023-04-04T16:18:44.939Z,51.11
2023-04-04T16:21:46.898Z,51.48
2023-04-04T16:24:48.285Z,51.81
2023-04-04T16:27:49.699Z,52.25
2023-04-04T16:30:51.353Z,52.38
2023-04-04T16:33:52.755Z,52.63
2023-04-04T16:36:54.192Z,52.77
2023-04-04T16:39:56.514Z,53.12
2023-04-04T16:42:57.914Z,53.12
2023-04-04T16:45:59.369Z,53.33
2023-04-04T16:49:00.910Z,53.57
2023-04-04T16:52:02.410Z,53.66
2023-04-04T16:55:04.004Z,53.87
2023-04-04T16:58:05.865Z,54.01
2023-04-04T17:01:07.321Z,54.02
2023-04-04T17:04:08.825Z,54.22
2023-04-04T17:07:10.273Z,54.30
2023-04-04T17:10:12.619Z,54.31
2023-04-04T17:13:15.216Z,54.47
2023-04-04T17:16:16.635Z,54.47
2023-04-04T17:19:18.026Z,54.47
2023-04-04T17:22:19.442Z,54.54
2023-04-04T17:25:22.353Z,54.69
2023-04-04T17:28:23.786Z,54.60
2023-04-04T17:31:25.241Z,54.71
2023-04-04T17:34:26.724Z,54.68
2023-04-04T17:37:29.046Z,54.68
2023-04-04T17:40:30.492Z,54.76
2023-04-04T17:43:31.925Z,54.88
2023-04-04T17:46:33.352Z,54.95
2023-04-04T17:49:35.391Z,54.95
2023-04-04T17:52:36.872Z,54.94
2023-04-04T17:55:40.417Z,54.93
2023-04-04T17:58:42.178Z,55.14
2023-04-04T18:01:43.624Z,55.15
2023-04-04T18:04:47.110Z,55.11
2023-04-04T18:07:48.575Z,55.08
2023-04-04T18:10:50.879Z,55.20
2023-04-04T18:13:52.308Z,55.35
2023-04-04T18:16:53.667Z,55.46
2023-04-04T18:19:56.498Z,55.65
2023-04-04T18:22:58.158Z,55.51
2023-04-04T18:26:00.351Z,55.53
2023-04-04T18:29:01.745Z,55.50
2023-04-04T18:32:03.624Z,55.57
2023-04-04T18:35:05.304Z,55.60
2023-04-04T18:38:07.092Z,55.64
2023-04-04T18:41:08.528Z,55.75
2023-04-04T18:44:09.983Z,55.75
2023-04-04T18:47:11.713Z,55.71
2023-04-04T18:50:14.191Z,55.67
2023-04-04T18:53:15.626Z,55.51
2023-04-04T18:56:17.066Z,55.49
2023-04-04T18:59:18.772Z,55.47
2023-04-04T19:02:20.438Z,55.58
2023-04-04T19:05:23.194Z,55.54
2023-04-04T19:08:25.097Z,55.44
2023-04-04T19:11:26.534Z,55.48
2023-04-04T19:14:28.009Z,55.40
2023-04-04T19:17:29.614Z,55.33
2023-04-04T19:20:31.089Z,55.30
2023-04-04T19:23:32.504Z,55.39
2023-04-04T19:26:34.161Z,55.33
2023-04-04T19:29:35.920Z,55.41
2023-04-04T19:32:37.388Z,55.33
2023-04-04T19:36:17.516Z,55.40
2023-04-04T19:39:20.745Z,55.44
2023-04-04T19:42:26.096Z,55.15
2023-04-04T19:45:46.419Z,55.00
2023-04-04T19:48:51.017Z,54.58
2023-04-04T19:51:53.838Z,54.53
2023-04-04T19:54:55.262Z,54.44
2023-04-04T19:57:56.658Z,54.38
2023-04-04T20:00:58.117Z,54.17
2023-04-04T20:04:05.201Z,54.02
2023-04-04T20:07:06.764Z,53.88
2023-04-04T20:10:09.082Z,53.86
2023-04-04T20:13:10.737Z,53.62
2023-04-04T20:16:12.223Z,53.54
2023-04-04T20:19:13.816Z,53.49
2023-04-04T20:22:16.757Z,53.33
2023-04-04T20:25:38.138Z,53.33
2023-04-04T20:28:40.510Z,53.29
2023-04-04T20:31:43.573Z,53.04
2023-04-04T20:34:46.237Z,53.00
2023-04-04T20:37:47.690Z,52.78
2023-04-04T20:40:49.161Z,52.74
2023-04-04T20:43:57.836Z,52.87
2023-04-04T20:46:59.252Z,52.82
2023-04-04T20:50:00.840Z,52.70
2023-04-04T20:53:03.524Z,52.63
2023-04-04T20:56:09.658Z,52.50
2023-04-04T20:59:31.376Z,52.52
2023-04-04T21:02:34.032Z,52.49
2023-04-04T21:05:36.537Z,52.48
2023-04-04T21:08:47.896Z,52.46
2023-04-04T21:11:49.306Z,52.47
2023-04-04T21:14:51.044Z,52.37
2023-04-04T21:17:52.594Z,52.50
2023-04-04T21:20:57.004Z,52.48
2023-04-04T21:23:59.718Z,52.39
2023-04-04T21:27:04.448Z,52.29
2023-04-04T21:30:08.334Z,52.33
2023-04-04T21:33:16.049Z,52.32
2023-04-04T21:36:23.166Z,52.40
2023-04-04T21:39:26.263Z,52.36
2023-04-04T21:42:30.220Z,52.31
2023-04-04T21:45:32.423Z,52.18
2023-04-04T21:48:33.827Z,52.11
2023-04-04T21:51:36.087Z,51.72
2023-04-04T21:54:37.442Z,51.59
2023-04-04T21:57:38.900Z,51.48
2023-04-04T22:00:40.545Z,51.53
2023-04-04T22:03:42.055Z,51.48
2023-04-04T22:06:43.889Z,51.33
2023-04-04T22:09:46.310Z,51.46
2023-04-04T22:12:49.775Z,51.50
2023-04-04T22:15:52.378Z,51.50
2023-04-04T22:18:53.810Z,51.46
2023-04-04T22:21:58.522Z,51.61
2023-04-04T22:25:08.998Z,51.51
2023-04-04T22:28:10.394Z,51.67
2023-04-04T22:31:12.134Z,51.67
2023-04-04T22:34:15.230Z,51.70
2023-04-04T22:37:19.339Z,51.70
2023-04-04T22:40:20.972Z,51.76
2023-04-04T22:43:22.926Z,51.80
2023-04-04T22:46:25.627Z,51.87
2023-04-04T22:49:27.500Z,52.00
2023-04-04T22:52:30.607Z,51.96
2023-04-04T22:55:32.806Z,51.88
2023-04-04T22:58:34.170Z,51.97
2023-04-04T23:01:35.577Z,52.03
2023-04-04T23:04:37.379Z,52.12
2023-04-04T23:07:39.239Z,52.12
2023-04-04T23:10:40.989Z,52.18
2023-04-04T23:13:43.184Z,52.22
2023-04-04T23:16:45.081Z,52.27
2023-04-04T23:19:46.486Z,52.38
2023-04-04T23:22:47.862Z,52.54
2023-04-04T23:25:49.273Z,52.57
2023-04-04T23:28:50.965Z,52.70
2023-04-04T23:31:52.366Z,52.70
2023-04-04T23:34:53.872Z,52.72
2023-04-04T23:37:55.353Z,52.73
2023-04-04T23:40:56.735Z,52.80
2023-04-04T23:43:58.211Z,52.80
2023-04-04T23:46:59.580Z,52.82
2023-04-04T23:50:01.180Z,52.88
2023-04-04T23:53:02.555Z,52.84
2023-04-04T23:56:03.973Z,52.91
2023-04-04T23:59:05.912Z,52.84
